Time;durP1;ratioP1;P1;durP2;ratioP2;P2;SDS_P1;SDS_P2;PMS_P1;PMS_P2;Temp;Humidity;BMP_temperature;BMP_pressure;BME280_temperature;BME280_humidity;BME280_pressure;Samples;Min_cycle;Max_cycle;Signal;HPM_P1;HPM_P2
2022/07/14 00:04:20;;;;;;;5.70;3.00;;;;;;;20.79;61.95;100407.07;3637392;80;98922;-82
2022/07/14 00:09:21;;;;;;;4.87;2.55;;;;;;;20.79;62.07;100412.06;3630829;80;99224;-82
2022/07/14 00:14:22;;;;;;;7.60;3.58;;;;;;;20.78;62.19;100411.90;3615983;81;99216;-83
2022/07/14 00:19:23;;;;;;;5.40;2.70;;;;;;;20.78;62.13;100407.70;3607488;80;99285;-82
2022/07/14 00:24:24;;;;;;;4.40;2.95;;;;;;;20.76;62.12;100403.15;3640588;81;29856;-82
2022/07/14 00:29:26;;;;;;;3.87;2.27;;;;;;;20.75;62.11;100407.78;3613263;81;99000;-81
2022/07/14 00:34:27;;;;;;;4.55;2.65;;;;;;;20.73;62.32;100406.06;3633477;81;98832;-81
2022/07/14 00:39:54;;;;;;;6.30;2.67;;;;;;;20.72;63.11;100402.47;3629328;81;99142;-81
2022/07/14 00:44:31;;;;;;;5.08;2.65;;;;;;;20.68;63.14;100410.20;3622372;81;98530;-80
2022/07/14 00:49:37;;;;;;;5.83;2.80;;;;;;;20.61;63.11;100415.98;3613033;81;99305;-80
2022/07/14 00:54:38;;;;;;;6.12;2.60;;;;;;;20.51;63.15;100417.11;3635002;80;26672;-81
2022/07/14 00:59:39;;;;;;;4.53;2.58;;;;;;;20.44;63.25;100417.30;3626677;81;99264;-82
2022/07/14 01:04:40;;;;;;;8.28;3.10;;;;;;;20.37;63.69;100418.91;3627939;80;99131;-81
2022/07/14 01:09:43;;;;;;;5.00;2.50;;;;;;;20.31;63.87;100411.50;3620899;81;98815;-81
2022/07/14 01:14:44;;;;;;;4.47;2.85;;;;;;;20.26;64.33;100422.63;3621995;80;99376;-81
2022/07/14 01:19:48;;;;;;;5.65;2.77;;;;;;;20.20;64.76;100421.60;3617448;81;99220;-81
2022/07/14 01:24:49;;;;;;;4.22;2.40;;;;;;;20.16;65.33;100415.95;3608502;80;32351;-80
2022/07/14 01:29:50;;;;;;;5.83;2.90;;;;;;;20.13;66.14;100420.41;3622108;81;98625;-81
2022/07/14 01:34:52;;;;;;;5.05;2.72;;;;;;;20.11;66.49;100420.05;3604519;80;98960;-81
2022/07/14 01:39:53;;;;;;;4.37;2.67;;;;;;;20.07;66.58;100419.39;3627817;79;98889;-81
2022/07/14 01:44:54;;;;;;;7.08;3.10;;;;;;;20.01;67.07;100425.91;3616210;81;98900;-81
2022/07/14 01:49:55;;;;;;;4.37;2.72;;;;;;;19.95;67.25;100420.06;3603086;81;98838;-80
2022/07/14 01:54:56;;;;;;;6.83;3.33;;;;;;;19.89;67.61;100421.83;3607111;81;29821;-81
2022/07/14 01:59:58;;;;;;;6.30;3.60;;;;;;;19.82;68.03;100421.23;3600845;81;98702;-81
2022/07/14 02:04:59;;;;;;;5.85;3.40;;;;;;;19.75;68.20;100429.20;3619830;81;98739;-81
2022/07/14 02:15:19;;;;;;;6.92;3.80;;;;;;;19.63;68.92;100429.12;3618851;81;98913;-81
2022/07/14 02:20:20;;;;;;;6.37;3.62;;;;;;;19.54;69.09;100426.95;3598874;81;99184;-81
2022/07/14 02:25:22;;;;;;;8.38;3.90;;;;;;;19.46;69.45;100427.58;3592691;80;98912;-81
2022/07/14 02:30:23;;;;;;;6.35;3.40;;;;;;;19.39;69.71;100434.11;3599512;81;98603;-81
2022/07/14 02:35:24;;;;;;;6.50;3.50;;;;;;;19.34;70.11;100430.44;3619183;81;98632;-81
2022/07/14 02:40:25;;;;;;;5.42;2.87;;;;;;;19.30;70.40;100438.11;3596717;80;99063;-81
2022/07/14 02:45:26;;;;;;;6.22;3.25;;;;;;;19.25;70.55;100442.05;3582863;81;98944;-81
2022/07/14 02:50:27;;;;;;;6.53;3.20;;;;;;;19.20;70.82;100444.72;3610430;81;98925;-81
2022/07/14 02:55:28;;;;;;;7.35;3.17;;;;;;;19.18;71.11;100454.75;3602615;81;99249;-81
2022/07/14 03:00:30;;;;;;;6.35;3.67;;;;;;;19.12;71.20;100464.85;3508410;82;98369;-81
2022/07/14 03:05:31;;;;;;;5.67;3.25;;;;;;;19.08;71.43;100459.95;3528758;82;98683;-81
2022/07/14 03:10:32;;;;;;;5.73;3.23;;;;;;;19.03;71.52;100471.63;3510289;82;98808;-81
2022/07/14 03:15:33;;;;;;;7.40;3.30;;;;;;;18.99;71.96;100472.30;3500752;83;98811;-81
2022/07/14 03:20:34;;;;;;;6.33;3.40;;;;;;;18.94;72.11;100476.41;3523045;81;99274;-81
2022/07/14 03:25:36;;;;;;;6.42;3.30;;;;;;;18.92;72.36;100479.45;3533347;82;98856;-82
2022/07/14 03:30:37;;;;;;;8.03;3.60;;;;;;;18.89;72.64;100478.30;3471365;82;98697;-82
2022/07/14 03:35:40;;;;;;;5.80;3.50;;;;;;;18.87;72.80;100482.14;3556974;81;98674;-82
2022/07/14 03:40:41;;;;;;;6.30;3.53;;;;;;;18.84;72.72;100486.38;3503344;82;98779;-82
2022/07/14 03:45:42;;;;;;;5.70;3.12;;;;;;;18.77;72.81;100491.52;3548255;82;99232;-82
2022/07/14 03:50:43;;;;;;;5.62;2.90;;;;;;;18.72;72.73;100501.78;3526002;82;99357;-82
2022/07/14 03:55:45;;;;;;;5.92;2.50;;;;;;;18.69;73.00;100513.02;3559057;80;98835;-81
2022/07/14 04:00:46;;;;;;;5.15;2.83;;;;;;;18.68;73.15;100515.59;3553190;81;98586;-81
2022/07/14 04:05:47;;;;;;;7.25;2.83;;;;;;;18.69;72.99;100522.77;3560906;83;98773;-82
2022/07/14 04:10:48;;;;;;;4.97;3.00;;;;;;;18.68;72.99;100510.81;3529387;82;98726;-81
2022/07/14 04:15:50;;;;;;;5.95;2.45;;;;;;;18.65;72.81;100517.23;3569640;82;98838;-80
2022/07/14 04:20:54;;;;;;;5.50;2.37;;;;;;;18.66;73.12;100526.40;3562070;81;99231;-80
2022/07/14 04:25:56;;;;;;;9.38;2.77;;;;;;;18.65;73.03;100519.26;3568015;82;99480;-81
2022/07/14 04:30:57;;;;;;;8.48;2.47;;;;;;;18.65;73.08;100517.23;3567079;81;98558;-81
2022/07/14 04:35:58;;;;;;;6.72;2.50;;;;;;;18.66;73.30;100520.23;3568156;82;99199;-80
2022/07/14 04:41:00;;;;;;;7.10;2.62;;;;;;;18.70;73.40;100529.28;3540743;82;98810;-81
2022/07/14 04:46:01;;;;;;;10.03;2.67;;;;;;;18.70;73.23;100517.36;3572119;82;98776;-80
2022/07/14 04:56:22;;;;;;;6.15;2.35;;;;;;;18.77;73.05;100522.19;3562141;81;98928;-81
2022/07/14 05:01:23;;;;;;;6.35;2.17;;;;;;;18.83;72.88;100516.28;3574140;80;99329;-81
2022/07/14 05:06:24;;;;;;;6.25;2.25;;;;;;;18.90;72.66;100524.49;3566366;81;99016;-81
2022/07/14 05:11:25;;;;;;;7.10;2.50;;;;;;;18.98;72.63;100524.53;3559617;81;99043;-81
2022/07/14 05:16:27;;;;;;;8.68;2.67;;;;;;;19.12;72.72;100525.61;3533145;81;99061;-81
2022/07/14 05:21:28;;;;;;;9.73;2.77;;;;;;;19.28;72.75;100534.64;3556997;81;98874;-81
2022/07/14 05:26:29;;;;;;;7.03;2.40;;;;;;;19.48;72.52;100533.98;3501898;81;98800;-82
2022/07/14 05:31:30;;;;;;;7.17;2.42;;;;;;;19.71;71.98;100529.03;3509946;83;98955;-81
2022/07/14 05:36:31;;;;;;;13.10;2.72;;;;;;;20.04;71.73;100543.16;3508926;82;98802;-81
2022/07/14 05:41:32;;;;;;;7.45;2.60;;;;;;;20.40;71.37;100541.64;3535022;83;99022;-81
2022/07/14 05:46:33;;;;;;;7.42;2.58;;;;;;;20.81;71.00;100540.30;3527917;81;98925;-81
2022/07/14 05:51:34;;;;;;;6.25;2.65;;;;;;;21.31;69.58;100534.82;3561050;80;98801;-81
2022/07/14 05:56:35;;;;;;;9.20;2.70;;;;;;;21.91;69.45;100528.09;3570899;81;99099;-82
2022/07/14 06:01:36;;;;;;;8.53;2.60;;;;;;;22.63;67.61;100541.39;3616536;80;99227;-82
2022/07/14 06:06:37;;;;;;;10.58;3.00;;;;;;;23.30;66.36;100530.62;3563775;81;98848;-82
2022/07/14 06:11:41;;;;;;;10.43;3.62;;;;;;;23.93;64.51;100539.30;3589970;81;98871;-82
2022/07/14 06:16:43;;;;;;;11.12;2.98;;;;;;;24.41;62.65;100548.92;3525788;82;99467;-82
2022/07/14 06:21:44;;;;;;;10.70;2.55;;;;;;;24.87;61.39;100546.27;3545207;82;99120;-82
2022/07/14 06:26:45;;;;;;;9.30;2.80;;;;;;;25.10;59.27;100539.95;3522776;81;99127;-82
2022/07/14 06:31:46;;;;;;;6.20;2.72;;;;;;;25.16;57.77;100552.94;3545599;81;98798;-81
2022/07/14 06:36:47;;;;;;;8.30;2.70;;;;;;;25.32;57.74;100544.77;3526311;82;98973;-81
2022/07/14 06:41:48;;;;;;;9.95;2.95;;;;;;;25.53;57.17;100544.55;3533118;82;99201;-81
2022/07/14 06:46:49;;;;;;;12.20;2.87;;;;;;;25.65;55.26;100559.06;3527219;82;99127;-82
2022/07/14 06:51:50;;;;;;;9.00;2.30;;;;;;;25.43;54.49;100562.75;3533331;80;99562;-82
2022/07/14 06:56:51;;;;;;;9.65;2.90;;;;;;;25.28;54.84;100562.49;3528145;81;99188;-82
2022/07/14 07:01:52;;;;;;;11.28;2.40;;;;;;;25.52;54.02;100561.31;3554252;82;99274;-82
2022/07/14 07:06:53;;;;;;;10.03;2.42;;;;;;;25.62;54.21;100562.81;3556816;82;99193;-82
2022/07/14 07:11:54;;;;;;;9.25;2.25;;;;;;;26.02;54.23;100550.59;3525304;82;98124;-82
2022/07/14 07:16:55;;;;;;;9.70;2.55;;;;;;;26.07;53.10;100548.53;3460968;83;99238;-82
2022/07/14 07:21:57;;;;;;;8.65;2.10;;;;;;;26.33;53.12;100529.83;3477579;83;98922;-82
2022/07/14 07:26:58;;;;;;;12.35;3.12;;;;;;;26.61;52.03;100541.72;3465389;83;98843;-82
2022/07/14 07:31:59;;;;;;;8.83;2.05;;;;;;;26.88;51.98;100547.12;3444678;84;99096;-81
2022/07/14 07:37:00;;;;;;;9.80;2.62;;;;;;;27.30;50.75;100547.66;3575801;81;98931;-81
2022/07/14 07:42:01;;;;;;;8.40;2.58;;;;;;;27.49;49.34;100544.74;3566604;81;98579;-82
2022/07/14 07:47:03;;;;;;;11.22;2.20;;;;;;;27.82;49.14;100539.00;3553690;81;99595;-79
2022/07/14 07:52:05;;;;;;;12.13;2.52;;;;;;;27.49;46.85;100538.47;3524874;83;99073;-80
2022/07/14 07:57:06;;;;;;;10.95;2.22;;;;;;;27.42;47.52;100547.98;3531548;82;99097;-81
2022/07/14 08:02:07;;;;;;;8.28;2.33;;;;;;;27.45;46.94;100547.77;3538245;81;99011;-82
2022/07/14 08:07:08;;;;;;;8.00;2.30;;;;;;;27.77;47.70;100538.87;3570675;81;98936;-83
2022/07/14 08:12:09;;;;;;;10.38;2.40;;;;;;;28.18;45.64;100534.21;3520539;82;98588;-82
2022/07/14 08:17:10;;;;;;;45.92;13.08;;;;;;;28.57;45.59;100529.86;3499779;82;99112;-82
2022/07/14 08:22:12;;;;;;;10.43;2.35;;;;;;;28.96;45.30;100535.32;3532341;82;99567;-83
2022/07/14 08:27:13;;;;;;;9.28;2.22;;;;;;;29.06;42.85;100542.37;3550056;82;99344;-78
2022/07/14 08:32:14;;;;;;;7.80;1.70;;;;;;;29.36;43.48;100542.25;3483409;80;98216;-88
2022/07/14 08:37:15;;;;;;;7.42;1.77;;;;;;;29.53;42.93;100547.41;3457417;83;98553;-92
2022/07/14 08:42:16;;;;;;;7.50;1.80;;;;;;;30.01;42.08;100541.19;3459431;84;98575;-95
2022/07/14 08:47:18;;;;;;;8.08;2.58;;;;;;;30.46;41.64;100537.30;3446614;84;98959;-92
2022/07/14 08:52:19;;;;;;;12.55;2.17;;;;;;;30.49;39.15;100526.34;3460379;84;98943;-93
2022/07/14 08:57:20;;;;;;;10.08;2.00;;;;;;;30.51;40.16;100520.92;3457097;83;98986;-93
2022/07/14 09:02:22;;;;;;;11.88;2.35;;;;;;;31.27;39.82;100515.28;3472334;84;99007;-92
2022/07/14 09:07:35;;;;;;;9.45;2.50;;;;;;;31.90;38.38;100511.22;3462851;84;99095;-93
2022/07/14 09:12:39;;;;;;;7.47;2.37;;;;;;;32.24;37.48;100513.44;3459710;85;27627;-91
2022/07/14 09:17:54;;;;;;;5.17;1.85;;;;;;;32.25;37.27;100506.47;3430150;84;98692;-92
2022/07/14 09:22:59;;;;;;;8.65;2.10;;;;;;;33.27;37.10;100511.94;3411042;85;99365;-90
2022/07/14 09:28:01;;;;;;;6.92;1.70;;;;;;;33.99;35.47;100507.02;3409666;83;98991;-93
2022/07/14 09:33:04;;;;;;;5.30;1.82;;;;;;;34.40;33.41;100498.98;3419013;85;98884;-91
2022/07/14 09:38:19;;;;;;;5.90;1.80;;;;;;;34.34;33.52;100497.64;3438939;82;98545;-84
2022/07/14 09:43:22;;;;;;;7.33;1.70;;;;;;;34.47;31.01;100504.86;3477294;84;99155;-82
2022/07/14 09:48:23;;;;;;;5.00;1.70;;;;;;;34.38;31.82;100504.48;3472691;83;98675;-83
2022/07/14 09:53:29;;;;;;;6.28;1.67;;;;;;;33.71;30.49;100497.28;3479288;83;99043;-82
2022/07/14 09:58:33;;;;;;;6.40;1.82;;;;;;;33.75;31.54;100492.05;3457362;83;98878;-81
2022/07/14 10:03:37;;;;;;;4.75;1.50;;;;;;;34.35;31.78;100480.61;3470116;83;98929;-82
2022/07/14 10:08:44;;;;;;;6.83;1.52;;;;;;;34.33;29.81;100478.92;3428964;84;98918;-80
2022/07/14 10:13:45;;;;;;;7.15;2.00;;;;;;;34.71;30.21;100479.70;3435343;84;98992;-80
2022/07/14 10:18:47;;;;;;;5.08;2.10;;;;;;;34.19;30.61;100480.13;3444711;83;98522;-80
2022/07/14 10:23:48;;;;;;;6.87;2.08;;;;;;;34.60;29.56;100467.00;3434359;85;98793;-81
2022/07/14 10:28:50;;;;;;;7.47;2.15;;;;;;;34.82;29.16;100459.55;3424050;83;99086;-81
2022/07/14 10:34:19;;;;;;;7.15;2.10;;;;;;;34.76;29.01;100465.34;3434768;85;98858;-81
2022/07/14 10:39:50;;;;;;;5.47;1.62;;;;;;;34.39;28.66;100458.19;3415911;84;98942;-82
2022/07/14 10:44:51;;;;;;;6.80;1.67;;;;;;;33.95;28.54;100461.59;3438042;84;98864;-80
2022/07/14 10:50:16;;;;;;;5.25;1.42;;;;;;;34.59;29.01;100459.08;3445536;83;98899;-79
2022/07/14 10:55:35;;;;;;;7.45;1.67;;;;;;;34.88;28.58;100464.52;3443529;84;26329;-78
2022/07/14 11:00:47;;;;;;;3.92;1.30;;;;;;;34.04;28.15;100460.45;3438362;84;98411;-80
2022/07/14 11:06:09;;;;;;;5.20;1.57;;;;;;;33.50;28.49;100443.39;3435739;83;98628;-81
2022/07/14 11:11:27;;;;;;;15.38;2.33;;;;;;;33.32;29.50;100454.09;3441301;84;98761;-81
2022/07/14 11:16:47;;;;;;;5.45;1.52;;;;;;;34.31;28.94;100435.84;3432656;83;99414;-80
2022/07/14 11:22:17;;;;;;;4.78;1.45;;;;;;;34.17;26.83;100434.84;3443788;85;97964;-82
2022/07/14 11:27:32;;;;;;;6.08;1.32;;;;;;;34.12;27.73;100435.05;3430611;84;99403;-81
2022/07/14 11:32:35;;;;;;;5.28;1.10;;;;;;;34.72;28.43;100409.76;3419560;85;99327;-81
2022/07/14 11:38:18;;;;;;;5.03;1.47;;;;;;;34.74;26.30;100415.05;3418430;84;98912;-80
2022/07/14 11:43:36;;;;;;;4.30;1.05;;;;;;;34.82;26.79;100413.11;3497933;83;25900;-80
2022/07/14 11:48:51;;;;;;;5.90;1.60;;;;;;;35.12;26.80;100412.22;3487131;84;98925;-81
2022/07/14 11:53:59;;;;;;;6.42;2.02;;;;;;;35.89;27.94;100412.86;3475015;84;98724;-80
2022/07/14 11:59:07;;;;;;;4.08;1.45;;;;;;;36.29;27.50;100409.39;3491471;84;98694;-82
2022/07/14 12:04:11;;;;;;;4.33;1.20;;;;;;;36.47;25.56;100408.47;3475280;84;98026;-81
2022/07/14 12:09:16;;;;;;;5.10;1.20;;;;;;;36.15;25.17;100413.60;3458797;84;99226;-80
2022/07/14 12:14:18;;;;;;;8.05;1.60;;;;;;;35.76;26.00;100407.15;3466883;84;98888;-81
2022/07/14 12:19:31;;;;;;;2.98;0.72;;;;;;;35.68;25.89;100403.39;3485959;84;98521;-82
2022/07/14 12:24:33;;;;;;;4.12;1.12;;;;;;;35.67;25.90;100396.88;3498290;84;27997;-81
2022/07/14 12:29:38;;;;;;;7.37;1.52;;;;;;;35.75;26.08;100376.97;3467522;84;99071;-82
2022/07/14 12:34:39;;;;;;;2.40;1.00;;;;;;;35.65;24.92;100386.65;3486212;83;98927;-82
2022/07/14 12:39:41;;;;;;;3.87;1.20;;;;;;;35.42;25.80;100369.03;3458895;84;98777;-81
2022/07/14 12:45:02;;;;;;;4.00;1.15;;;;;;;35.28;24.78;100377.48;3399568;84;98841;-81
2022/07/14 12:50:09;;;;;;;6.47;1.12;;;;;;;35.34;25.65;100372.42;3410110;84;98906;-80
2022/07/14 12:55:32;;;;;;;4.80;1.32;;;;;;;35.43;25.47;100361.98;3407418;85;27472;-80
2022/07/14 13:00:35;;;;;;;4.53;1.42;;;;;;;35.48;25.79;100371.12;3430720;85;98413;-80
2022/07/14 13:05:55;;;;;;;3.50;1.20;;;;;;;35.23;25.17;100366.23;3442745;84;98744;-81
2022/07/14 13:10:58;;;;;;;4.00;0.93;;;;;;;35.18;26.71;100327.05;3429404;84;99001;-81
2022/07/14 13:16:24;;;;;;;3.83;1.02;;;;;;;35.18;26.71;100327.05;3440481;84;99189;-81
2022/07/14 13:21:58;;;;;;;3.67;0.88;;;;;;;35.31;24.95;100349.21;3437487;84;99319;-82
2022/07/14 13:27:06;;;;;;;;;;;;;;;34.60;23.57;100344.07;3440097;84;99251;-82
2022/07/14 13:32:09;;;;;;;4.92;0.95;;;;;;;33.54;22.63;100338.27;3440530;84;85140;-82
2022/07/14 13:37:15;;;;;;;3.65;1.07;;;;;;;33.09;24.38;100340.06;3439088;84;98521;-81
2022/07/14 13:42:16;;;;;;;4.53;0.90;;;;;;;33.26;25.67;100330.66;3466105;84;98479;-82
2022/07/14 13:47:19;;;;;;;3.95;1.17;;;;;;;33.33;24.32;100330.73;3476523;84;98771;-81
2022/07/14 13:52:20;;;;;;;6.45;0.90;;;;;;;33.00;26.02;100331.05;3469800;84;98946;-82
2022/07/14 13:57:21;;;;;;;6.10;1.10;;;;;;;32.91;24.59;100337.89;3470457;83;98734;-82
2022/07/14 14:02:22;;;;;;;6.55;0.90;;;;;;;32.66;24.40;100318.41;3489927;84;98772;-81
2022/07/14 14:07:23;;;;;;;1.85;0.85;;;;;;;32.05;23.99;100321.70;3459607;84;98871;-82
2022/07/14 14:12:24;;;;;;;4.22;1.00;;;;;;;31.99;25.09;100315.24;3479981;84;26422;-82
2022/07/14 14:17:25;;;;;;;1.37;0.72;;;;;;;31.73;24.84;100311.27;3461256;84;98918;-81
2022/07/14 14:22:26;;;;;;;2.08;0.90;;;;;;;31.62;26.36;100303.53;3478343;84;98811;-82
2022/07/14 14:27:27;;;;;;;3.02;0.88;;;;;;;31.72;25.11;100313.95;3495242;84;98737;-81
2022/07/14 14:32:28;;;;;;;2.12;0.70;;;;;;;31.16;25.06;100296.96;3488782;84;98868;-82
2022/07/14 14:37:29;;;;;;;5.05;0.80;;;;;;;31.02;26.87;100300.23;3495215;84;98882;-81
2022/07/14 14:42:31;;;;;;;5.15;1.00;;;;;;;31.02;26.17;100264.70;3483168;84;32556;-82
2022/07/14 14:47:32;;;;;;;2.47;0.80;;;;;;;30.97;25.36;100291.06;3449070;84;98995;-80
2022/07/14 14:52:34;;;;;;;3.17;0.98;;;;;;;30.74;25.25;100299.48;3475385;84;98843;-81
2022/07/14 14:57:38;;;;;;;2.15;0.75;;;;;;;30.38;26.39;100299.09;3458815;84;98921;-81
2022/07/14 15:02:40;;;;;;;3.60;0.72;;;;;;;30.40;27.14;100285.81;3460534;84;98880;-82
2022/07/14 15:07:42;;;;;;;2.98;0.60;;;;;;;30.42;27.84;100291.73;3476733;84;98867;-80
2022/07/14 15:12:43;;;;;;;4.25;0.70;;;;;;;30.43;28.12;100279.86;3466276;84;27458;-81
2022/07/14 15:17:46;;;;;;;4.17;0.90;;;;;;;30.51;27.89;100293.66;3470009;84;98923;-80
2022/07/14 15:22:47;;;;;;;3.22;1.07;;;;;;;30.14;26.73;100281.01;3457785;84;98755;-81
2022/07/14 15:27:48;;;;;;;6.42;0.75;;;;;;;29.53;27.05;100283.63;3455496;84;98823;-80
2022/07/14 15:32:49;;;;;;;2.05;0.60;;;;;;;29.56;28.33;100284.70;3449043;84;98798;-81
2022/07/14 15:37:50;;;;;;;3.83;1.07;;;;;;;29.41;29.09;100284.09;3485011;84;99020;-81
2022/07/14 15:42:51;;;;;;;4.37;0.70;;;;;;;29.31;29.41;100283.55;3457842;84;32514;-80
2022/07/14 15:47:52;;;;;;;4.12;1.00;;;;;;;29.24;30.39;100274.12;3421135;84;98901;-81
2022/07/14 15:52:54;;;;;;;2.52;0.80;;;;;;;28.97;28.78;100268.29;3430158;85;98768;-81
2022/07/14 15:57:55;;;;;;;2.77;0.70;;;;;;;28.73;30.07;100260.78;3427516;84;98855;-80
2022/07/14 16:02:56;;;;;;;0.70;0.40;;;;;;;28.76;30.46;100257.71;3429160;85;98921;-81
2022/07/14 16:07:57;;;;;;;1.50;0.57;;;;;;;28.73;30.96;100253.70;3435170;84;99105;-82
2022/07/14 16:12:58;;;;;;;3.62;0.70;;;;;;;28.60;30.93;100249.88;3432078;85;33189;-80
2022/07/14 16:18:01;;;;;;;2.72;0.65;;;;;;;28.47;30.89;100236.80;3448722;84;98678;-81
2022/07/14 16:23:03;;;;;;;3.12;0.60;;;;;;;28.40;30.78;100247.15;3426147;85;98739;-81
2022/07/14 16:28:04;;;;;;;3.40;0.70;;;;;;;28.25;30.66;100236.59;3423974;84;98873;-80
2022/07/14 16:33:05;;;;;;;3.42;0.80;;;;;;;28.16;31.10;100221.20;3429205;84;98878;-80
2022/07/14 16:38:06;;;;;;;4.08;0.70;;;;;;;27.99;31.40;100214.63;3448535;84;98844;-80
2022/07/14 16:43:07;;;;;;;2.27;0.70;;;;;;;27.89;31.91;100204.00;3428514;85;32458;-80
2022/07/14 16:48:08;;;;;;;2.60;0.85;;;;;;;27.66;31.55;100199.36;3426511;85;98780;-81
2022/07/14 16:53:10;;;;;;;2.47;0.60;;;;;;;27.46;31.80;100180.40;3435009;85;98896;-80
2022/07/14 16:58:14;;;;;;;1.42;0.42;;;;;;;27.26;32.37;100176.22;3436626;84;98885;-80
2022/07/14 17:03:14;;;;;;;3.10;0.80;;;;;;;27.08;32.71;100168.65;3454019;85;98827;-80
2022/07/14 17:08:15;;;;;;;2.35;0.78;;;;;;;26.93;33.06;100165.91;3406861;84;98823;-80
2022/07/14 17:13:16;;;;;;;3.02;0.60;;;;;;;26.72;33.58;100146.62;3443379;85;33091;-80
2022/07/14 17:18:17;;;;;;;2.12;0.78;;;;;;;26.63;33.76;100156.00;3412102;84;98566;-80
2022/07/14 17:23:19;;;;;;;5.42;1.35;;;;;;;26.36;33.39;100162.63;3435941;84;98627;-78
2022/07/14 17:28:20;;;;;;;8.23;2.70;;;;;;;26.03;33.85;100168.55;3428482;84;98933;-79
2022/07/14 17:33:21;;;;;;;9.20;2.40;;;;;;;25.75;34.31;100164.45;3410728;84;99382;-79
2022/07/14 17:38:23;;;;;;;7.83;2.70;;;;;;;25.44;34.81;100157.10;3428379;84;98910;-79
2022/07/14 17:43:27;;;;;;;9.60;2.65;;;;;;;25.31;35.20;100161.45;3427170;85;98943;-80
2022/07/14 17:48:28;;;;;;;7.15;2.80;;;;;;;25.10;35.56;100163.34;3417567;85;98586;-79
2022/07/14 17:53:29;;;;;;;11.18;3.75;;;;;;;24.87;35.86;100172.60;3422190;85;98709;-80
2022/07/14 17:58:31;;;;;;;7.78;3.30;;;;;;;24.68;36.37;100169.75;3396925;85;99179;-79
2022/07/14 18:03:32;;;;;;;9.48;3.25;;;;;;;24.46;36.66;100167.82;3428441;85;98908;-79
2022/07/14 18:08:33;;;;;;;7.55;3.17;;;;;;;24.26;37.10;100165.44;3430977;85;98872;-79
2022/07/14 18:13:34;;;;;;;8.95;3.62;;;;;;;24.07;37.67;100162.54;3444952;85;98728;-79
2022/07/14 18:18:36;;;;;;;7.77;3.63;;;;;;;23.88;37.82;100166.66;3404033;85;98748;-79
2022/07/14 18:23:37;;;;;;;9.60;3.80;;;;;;;23.73;38.68;100171.38;3424906;85;98693;-80
2022/07/14 18:28:39;;;;;;;7.22;2.92;;;;;;;23.53;38.05;100183.73;3428843;84;99268;-79
2022/07/14 18:33:40;;;;;;;7.15;2.40;;;;;;;23.24;38.96;100189.87;3432574;85;99353;-79
2022/07/14 18:38:41;;;;;;;4.95;2.00;;;;;;;23.08;39.41;100199.98;3400189;85;99188;-80
2022/07/14 18:43:42;;;;;;;12.13;5.55;;;;;;;22.96;39.60;100205.73;3427480;84;99269;-80
2022/07/14 18:48:46;;;;;;;24.55;15.60;;;;;;;22.75;39.56;100206.02;3423887;85;98622;-80
2022/07/14 18:53:47;;;;;;;19.15;10.43;;;;;;;22.61;39.82;100215.66;3425164;85;99033;-80
2022/07/14 18:58:49;;;;;;;172.68;94.45;;;;;;;22.47;40.53;100220.43;3414326;84;99202;-80
2022/07/14 19:03:51;;;;;;;16.05;7.70;;;;;;;22.34;41.37;100213.49;3426924;85;99813;-80
2022/07/14 19:08:53;;;;;;;12.37;5.53;;;;;;;22.25;42.24;100219.08;3424512;84;99539;-80
2022/07/14 19:13:54;;;;;;;10.70;3.87;;;;;;;22.15;42.46;100221.69;3413188;85;98719;-80
2022/07/14 19:18:55;;;;;;;10.45;4.53;;;;;;;22.04;43.15;100226.13;3437566;85;98826;-80
2022/07/14 19:24:00;;;;;;;5.35;2.22;;;;;;;21.87;43.57;100231.19;3422960;85;99309;-80
2022/07/14 19:28:59;;;;;;;6.67;2.50;;;;;;;21.77;43.88;100237.18;3425500;84;99059;-80
2022/07/14 19:34:00;;;;;;;7.00;2.85;;;;;;;21.57;44.17;100229.72;3421174;85;98858;-80
2022/07/14 19:39:01;;;;;;;13.93;3.77;;;;;;;21.43;44.70;100237.22;3435861;85;99227;-80
2022/07/14 19:44:03;;;;;;;6.03;2.50;;;;;;;21.29;45.42;100239.11;3460347;84;98704;-80
2022/07/14 19:49:04;;;;;;;7.83;2.58;;;;;;;21.13;46.27;100237.28;3478279;84;98619;-80
2022/07/14 19:54:05;;;;;;;6.22;2.10;;;;;;;20.98;46.78;100252.98;3477058;84;99084;-80
2022/07/14 19:59:06;;;;;;;8.28;2.25;;;;;;;20.82;47.52;100255.13;3450709;83;99130;-80
2022/07/14 20:04:08;;;;;;;6.95;2.05;;;;;;;20.67;48.12;100249.23;3464304;84;98845;-80
2022/07/14 20:09:09;;;;;;;7.10;2.40;;;;;;;20.51;48.86;100256.95;3480469;84;99278;-81
2022/07/14 20:14:11;;;;;;;5.00;2.10;;;;;;;20.36;49.09;100260.02;3479733;84;98857;-80
2022/07/14 20:19:12;;;;;;;4.72;1.85;;;;;;;20.19;49.76;100270.53;3462360;84;98756;-81
2022/07/14 20:24:13;;;;;;;6.37;1.95;;;;;;;20.07;50.50;100276.09;3483045;84;98900;-81
2022/07/14 20:34:33;;;;;;;9.25;3.22;;;;;;;19.75;51.03;100273.41;3484612;84;99222;-80
2022/07/14 20:39:34;;;;;;;7.95;3.55;;;;;;;19.58;51.73;100281.69;3496324;84;99166;-79
2022/07/14 20:44:36;;;;;;;8.35;3.67;;;;;;;19.43;52.08;100286.08;3489131;84;99200;-80
2022/07/14 20:49:40;;;;;;;10.60;4.75;;;;;;;19.26;52.38;100279.77;3464155;84;99233;-82
2022/07/14 20:54:40;;;;;;;11.10;5.10;;;;;;;19.16;53.32;100281.39;3465090;84;33055;-80
2022/07/14 20:59:45;;;;;;;10.23;4.12;;;;;;;19.05;53.52;100283.67;3475556;84;99188;-80
2022/07/14 21:04:47;;;;;;;12.55;4.87;;;;;;;18.96;53.71;100293.29;3466208;85;99218;-81
2022/07/14 21:09:48;;;;;;;7.83;3.37;;;;;;;18.85;54.05;100287.20;3448990;84;99050;-80
2022/07/14 21:14:51;;;;;;;7.40;3.12;;;;;;;18.68;54.31;100282.81;3479398;85;99239;-80
2022/07/14 21:19:52;;;;;;;9.65;4.08;;;;;;;18.60;54.95;100287.80;3441239;85;98879;-80
2022/07/14 21:24:54;;;;;;;11.33;4.42;;;;;;;18.53;55.67;100299.09;3464359;84;33204;-80
2022/07/14 21:29:55;;;;;;;9.70;4.25;;;;;;;18.46;55.91;100295.67;3460971;84;99237;-80
2022/07/14 21:34:56;;;;;;;11.40;4.87;;;;;;;18.37;56.29;100298.30;3461032;85;98747;-80
2022/07/14 21:39:57;;;;;;;10.13;4.17;;;;;;;18.26;56.60;100288.73;3465863;84;99046;-80
2022/07/14 21:44:58;;;;;;;10.50;4.55;;;;;;;18.19;56.42;100289.49;3454980;84;98986;-80
2022/07/14 21:50:00;;;;;;;12.18;4.28;;;;;;;18.08;57.02;100292.52;3435747;84;99038;-80
2022/07/14 21:55:02;;;;;;;10.68;4.50;;;;;;;18.00;57.25;100295.30;3442949;85;30921;-80
2022/07/14 22:00:09;;;;;;;12.13;5.07;;;;;;;17.92;57.39;100298.03;3422916;84;98858;-80
2022/07/14 22:05:09;;;;;;;12.68;4.60;;;;;;;17.86;57.81;100303.12;3432193;85;98917;-80
2022/07/14 22:10:10;;;;;;;9.20;3.98;;;;;;;17.78;58.12;100291.98;3405001;85;99021;-81
2022/07/14 22:15:11;;;;;;;11.20;4.35;;;;;;;17.69;58.50;100288.37;3434012;84;98767;-80
2022/07/14 22:20:18;;;;;;;9.63;3.87;;;;;;;17.64;58.71;100293.05;3431513;84;98984;-80
2022/07/14 22:25:21;;;;;;;14.20;4.72;;;;;;;17.57;58.83;100286.83;3432689;84;28239;-81
2022/07/14 22:30:22;;;;;;;11.48;4.12;;;;;;;17.47;59.13;100287.22;3448706;84;98657;-80
2022/07/14 22:35:24;;;;;;;10.08;4.22;;;;;;;17.41;59.54;100290.91;3432852;85;98881;-81
2022/07/14 22:40:26;;;;;;;9.30;3.95;;;;;;;17.29;59.20;100296.48;3411588;84;99376;-81
2022/07/14 22:45:27;;;;;;;8.30;3.50;;;;;;;17.19;59.88;100299.44;3418205;84;99206;-80
2022/07/14 22:50:29;;;;;;;9.23;4.00;;;;;;;17.05;59.66;100306.65;3408431;84;98913;-81
2022/07/14 22:55:30;;;;;;;11.05;4.85;;;;;;;16.95;60.45;100311.16;3405886;84;98825;-81
2022/07/14 23:00:31;;;;;;;10.90;4.53;;;;;;;16.89;60.60;100314.86;3435556;85;98760;-81
2022/07/14 23:05:32;;;;;;;12.40;4.45;;;;;;;16.79;60.70;100304.08;3426840;85;98868;-81
2022/07/14 23:10:34;;;;;;;11.12;3.98;;;;;;;16.75;61.11;100303.37;3432427;84;99002;-81
2022/07/14 23:15:36;;;;;;;11.93;5.03;;;;;;;16.70;61.22;100309.40;3431759;85;99103;-80
2022/07/14 23:20:40;;;;;;;10.80;4.30;;;;;;;16.68;61.91;100309.64;3428294;84;99124;-81
2022/07/14 23:25:42;;;;;;;11.12;4.10;;;;;;;16.63;61.97;100317.05;3430074;84;98913;-81
2022/07/14 23:30:43;;;;;;;8.23;4.20;;;;;;;16.59;62.05;100324.06;3441582;84;98783;-80
2022/07/14 23:35:44;;;;;;;10.10;4.55;;;;;;;16.54;62.32;100324.53;3422813;85;98673;-81
2022/07/14 23:40:45;;;;;;;11.20;4.45;;;;;;;16.49;62.63;100318.05;3435923;84;98840;-80
2022/07/14 23:45:46;;;;;;;9.43;3.80;;;;;;;16.46;62.70;100314.71;3421372;84;99025;-81